sensor_id;sensor_type;location;lat;lon;timestamp;P1;durP1;ratioP1;P2;durP2;ratioP2
64868;SDS011;51349;52.424;10.840;2023-11-19T00:04:53;2.27;;;2.10;;
64868;SDS011;51349;52.424;10.840;2023-11-19T00:09:54;1.80;;;1.70;;
64868;SDS011;51349;52.424;10.840;2023-11-19T00:14:55;1.90;;;1.70;;
64868;SDS011;51349;52.424;10.840;2023-11-19T00:19:55;2.00;;;1.90;;
64868;SDS011;51349;52.424;10.840;2023-11-19T00:24:56;2.03;;;1.93;;
64868;SDS011;51349;52.424;10.840;2023-11-19T00:29:57;2.20;;;2.10;;
64868;SDS011;51349;52.424;10.840;2023-11-19T00:34:58;2.00;;;1.90;;
64868;SDS011;51349;52.424;10.840;2023-11-19T00:39:59;2.30;;;2.10;;
64868;SDS011;51349;52.424;10.840;2023-11-19T00:45:00;2.97;;;1.90;;
64868;SDS011;51349;52.424;10.840;2023-11-19T00:50:02;2.07;;;1.97;;
64868;SDS011;51349;52.424;10.840;2023-11-19T00:55:03;2.00;;;1.90;;
64868;SDS011;51349;52.424;10.840;2023-11-19T01:00:05;1.73;;;1.63;;
64868;SDS011;51349;52.424;10.840;2023-11-19T01:05:18;1.93;;;1.83;;
64868;SDS011;51349;52.424;10.840;2023-11-19T01:10:22;1.83;;;1.73;;
64868;SDS011;51349;52.424;10.840;2023-11-19T01:15:24;1.83;;;1.73;;
64868;SDS011;51349;52.424;10.840;2023-11-19T01:20:25;2.00;;;1.60;;
64868;SDS011;51349;52.424;10.840;2023-11-19T01:25:26;1.70;;;1.60;;
64868;SDS011;51349;52.424;10.840;2023-11-19T01:30:27;1.70;;;1.60;;
64868;SDS011;51349;52.424;10.840;2023-11-19T01:35:28;1.77;;;1.50;;
64868;SDS011;51349;52.424;10.840;2023-11-19T01:40:28;1.30;;;1.30;;
64868;SDS011;51349;52.424;10.840;2023-11-19T01:45:30;1.33;;;1.27;;
64868;SDS011;51349;52.424;10.840;2023-11-19T01:50:31;1.33;;;1.30;;
64868;SDS011;51349;52.424;10.840;2023-11-19T01:55:33;1.20;;;1.10;;
64868;SDS011;51349;52.424;10.840;2023-11-19T02:00:33;1.17;;;1.10;;
64868;SDS011;51349;52.424;10.840;2023-11-19T02:05:34;1.17;;;1.07;;
64868;SDS011;51349;52.424;10.840;2023-11-19T02:10:35;1.10;;;1.00;;
64868;SDS011;51349;52.424;10.840;2023-11-19T02:15:36;0.90;;;0.90;;
64868;SDS011;51349;52.424;10.840;2023-11-19T02:20:36;1.40;;;0.87;;
64868;SDS011;51349;52.424;10.840;2023-11-19T02:25:37;1.47;;;0.80;;
64868;SDS011;51349;52.424;10.840;2023-11-19T02:30:40;1.30;;;0.73;;
64868;SDS011;51349;52.424;10.840;2023-11-19T02:35:41;0.70;;;0.70;;
64868;SDS011;51349;52.424;10.840;2023-11-19T02:40:41;0.73;;;0.73;;
64868;SDS011;51349;52.424;10.840;2023-11-19T02:45:42;0.67;;;0.67;;
64868;SDS011;51349;52.424;10.840;2023-11-19T02:50:45;0.80;;;0.70;;
64868;SDS011;51349;52.424;10.840;2023-11-19T02:55:47;0.83;;;0.83;;
64868;SDS011;51349;52.424;10.840;2023-11-19T03:00:50;0.60;;;0.60;;
64868;SDS011;51349;52.424;10.840;2023-11-19T03:06:09;0.50;;;0.50;;
64868;SDS011;51349;52.424;10.840;2023-11-19T03:11:10;0.70;;;0.70;;
64868;SDS011;51349;52.424;10.840;2023-11-19T03:16:10;2.23;;;0.67;;
64868;SDS011;51349;52.424;10.840;2023-11-19T03:21:11;6.47;;;0.90;;
64868;SDS011;51349;52.424;10.840;2023-11-19T03:26:12;0.60;;;0.60;;
64868;SDS011;51349;52.424;10.840;2023-11-19T03:31:13;2.17;;;0.60;;
64868;SDS011;51349;52.424;10.840;2023-11-19T03:36:14;0.50;;;0.50;;
64868;SDS011;51349;52.424;10.840;2023-11-19T03:41:15;0.40;;;0.40;;
64868;SDS011;51349;52.424;10.840;2023-11-19T03:46:17;0.50;;;0.50;;
64868;SDS011;51349;52.424;10.840;2023-11-19T03:51:21;1.23;;;0.50;;
64868;SDS011;51349;52.424;10.840;2023-11-19T03:56:22;1.47;;;0.57;;
64868;SDS011;51349;52.424;10.840;2023-11-19T04:01:22;0.43;;;0.43;;
64868;SDS011;51349;52.424;10.840;2023-11-19T04:06:23;1.80;;;0.60;;
64868;SDS011;51349;52.424;10.840;2023-11-19T04:11:24;1.70;;;0.60;;
64868;SDS011;51349;52.424;10.840;2023-11-19T04:16:27;0.73;;;0.70;;
64868;SDS011;51349;52.424;10.840;2023-11-19T04:21:29;1.67;;;1.00;;
64868;SDS011;51349;52.424;10.840;2023-11-19T04:26:29;1.40;;;1.10;;
64868;SDS011;51349;52.424;10.840;2023-11-19T04:31:31;1.77;;;1.30;;
64868;SDS011;51349;52.424;10.840;2023-11-19T04:36:32;4.43;;;1.27;;
64868;SDS011;51349;52.424;10.840;2023-11-19T04:41:33;1.30;;;1.30;;
64868;SDS011;51349;52.424;10.840;2023-11-19T04:46:34;1.47;;;1.40;;
64868;SDS011;51349;52.424;10.840;2023-11-19T04:51:37;1.43;;;1.33;;
64868;SDS011;51349;52.424;10.840;2023-11-19T04:56:39;1.40;;;1.30;;
64868;SDS011;51349;52.424;10.840;2023-11-19T05:01:40;1.87;;;1.70;;
64868;SDS011;51349;52.424;10.840;2023-11-19T05:06:41;2.03;;;1.70;;
64868;SDS011;51349;52.424;10.840;2023-11-19T05:11:42;3.70;;;1.97;;
64868;SDS011;51349;52.424;10.840;2023-11-19T05:16:43;3.43;;;2.37;;
64868;SDS011;51349;52.424;10.840;2023-11-19T05:21:44;2.13;;;2.03;;
64868;SDS011;51349;52.424;10.840;2023-11-19T05:26:45;2.20;;;2.00;;
64868;SDS011;51349;52.424;10.840;2023-11-19T05:31:45;3.43;;;2.50;;
64868;SDS011;51349;52.424;10.840;2023-11-19T05:36:47;2.60;;;2.40;;
64868;SDS011;51349;52.424;10.840;2023-11-19T05:41:48;4.00;;;3.03;;
64868;SDS011;51349;52.424;10.840;2023-11-19T05:46:49;3.40;;;3.00;;
64868;SDS011;51349;52.424;10.840;2023-11-19T05:51:49;3.87;;;3.47;;
64868;SDS011;51349;52.424;10.840;2023-11-19T05:56:51;5.80;;;3.10;;
64868;SDS011;51349;52.424;10.840;2023-11-19T06:01:54;3.37;;;3.07;;
64868;SDS011;51349;52.424;10.840;2023-11-19T06:06:54;2.77;;;2.47;;
64868;SDS011;51349;52.424;10.840;2023-11-19T06:11:55;2.80;;;2.60;;
64868;SDS011;51349;52.424;10.840;2023-11-19T06:16:57;2.97;;;2.67;;
64868;SDS011;51349;52.424;10.840;2023-11-19T06:21:58;5.40;;;2.73;;
64868;SDS011;51349;52.424;10.840;2023-11-19T06:26:59;2.97;;;2.73;;
64868;SDS011;51349;52.424;10.840;2023-11-19T06:32:00;2.73;;;2.53;;
64868;SDS011;51349;52.424;10.840;2023-11-19T06:37:01;2.20;;;2.10;;
64868;SDS011;51349;52.424;10.840;2023-11-19T06:42:04;2.20;;;2.03;;
64868;SDS011;51349;52.424;10.840;2023-11-19T06:47:05;2.90;;;2.60;;
64868;SDS011;51349;52.424;10.840;2023-11-19T06:52:06;2.80;;;2.57;;
64868;SDS011;51349;52.424;10.840;2023-11-19T06:57:07;2.80;;;2.47;;
64868;SDS011;51349;52.424;10.840;2023-11-19T07:02:09;3.40;;;2.30;;
64868;SDS011;51349;52.424;10.840;2023-11-19T07:07:10;3.30;;;2.60;;
64868;SDS011;51349;52.424;10.840;2023-11-19T07:12:10;3.13;;;2.80;;
64868;SDS011;51349;52.424;10.840;2023-11-19T07:17:13;3.67;;;2.60;;
64868;SDS011;51349;52.424;10.840;2023-11-19T07:22:15;4.27;;;2.43;;
64868;SDS011;51349;52.424;10.840;2023-11-19T07:27:16;6.47;;;2.87;;
64868;SDS011;51349;52.424;10.840;2023-11-19T07:32:17;4.43;;;3.13;;
64868;SDS011;51349;52.424;10.840;2023-11-19T07:37:18;4.40;;;3.00;;
64868;SDS011;51349;52.424;10.840;2023-11-19T07:42:18;4.03;;;3.10;;
64868;SDS011;51349;52.424;10.840;2023-11-19T07:47:20;8.70;;;3.47;;
64868;SDS011;51349;52.424;10.840;2023-11-19T07:52:22;6.43;;;3.40;;
64868;SDS011;51349;52.424;10.840;2023-11-19T07:57:23;6.40;;;3.80;;
64868;SDS011;51349;52.424;10.840;2023-11-19T08:02:24;10.90;;;4.30;;
64868;SDS011;51349;52.424;10.840;2023-11-19T08:07:25;9.27;;;4.43;;
64868;SDS011;51349;52.424;10.840;2023-11-19T08:12:26;11.73;;;4.73;;
64868;SDS011;51349;52.424;10.840;2023-11-19T08:17:27;16.40;;;5.20;;
64868;SDS011;51349;52.424;10.840;2023-11-19T08:22:28;12.70;;;4.93;;
64868;SDS011;51349;52.424;10.840;2023-11-19T08:27:29;12.13;;;5.47;;
64868;SDS011;51349;52.424;10.840;2023-11-19T08:32:29;12.83;;;5.60;;
64868;SDS011;51349;52.424;10.840;2023-11-19T08:37:30;15.20;;;5.10;;
64868;SDS011;51349;52.424;10.840;2023-11-19T08:42:31;14.53;;;5.47;;
64868;SDS011;51349;52.424;10.840;2023-11-19T08:47:31;13.93;;;5.10;;
64868;SDS011;51349;52.424;10.840;2023-11-19T08:52:32;12.60;;;4.43;;
64868;SDS011;51349;52.424;10.840;2023-11-19T08:57:33;12.77;;;4.60;;
64868;SDS011;51349;52.424;10.840;2023-11-19T09:02:36;13.23;;;4.40;;
64868;SDS011;51349;52.424;10.840;2023-11-19T09:07:37;18.80;;;4.87;;
64868;SDS011;51349;52.424;10.840;2023-11-19T09:12:38;15.17;;;4.70;;
64868;SDS011;51349;52.424;10.840;2023-11-19T09:17:38;13.97;;;4.07;;
64868;SDS011;51349;52.424;10.840;2023-11-19T09:22:39;13.67;;;4.43;;
64868;SDS011;51349;52.424;10.840;2023-11-19T09:27:40;12.67;;;4.50;;
64868;SDS011;51349;52.424;10.840;2023-11-19T09:32:41;11.60;;;3.80;;
64868;SDS011;51349;52.424;10.840;2023-11-19T09:37:44;17.77;;;4.63;;
64868;SDS011;51349;52.424;10.840;2023-11-19T09:42:45;14.07;;;3.70;;
64868;SDS011;51349;52.424;10.840;2023-11-19T09:47:46;14.20;;;3.60;;
64868;SDS011;51349;52.424;10.840;2023-11-19T09:52:47;19.65;;;3.90;;
64868;SDS011;51349;52.424;10.840;2023-11-19T09:57:48;14.68;;;3.40;;
64868;SDS011;51349;52.424;10.840;2023-11-19T10:02:52;11.60;;;3.97;;
64868;SDS011;51349;52.424;10.840;2023-11-19T10:07:55;17.35;;;4.28;;
64868;SDS011;51349;52.424;10.840;2023-11-19T10:12:55;15.32;;;3.67;;
64868;SDS011;51349;52.424;10.840;2023-11-19T10:17:57;13.68;;;3.90;;
64868;SDS011;51349;52.424;10.840;2023-11-19T10:22:57;13.75;;;3.55;;
64868;SDS011;51349;52.424;10.840;2023-11-19T10:27:58;11.48;;;3.75;;
64868;SDS011;51349;52.424;10.840;2023-11-19T10:33:04;13.02;;;3.50;;
64868;SDS011;51349;52.424;10.840;2023-11-19T10:38:14;9.75;;;3.80;;
64868;SDS011;51349;52.424;10.840;2023-11-19T10:43:16;12.15;;;3.20;;
64868;SDS011;51349;52.424;10.840;2023-11-19T10:48:19;15.38;;;3.80;;
64868;SDS011;51349;52.424;10.840;2023-11-19T10:53:24;14.40;;;3.55;;
64868;SDS011;51349;52.424;10.840;2023-11-19T10:58:28;12.80;;;3.55;;
64868;SDS011;51349;52.424;10.840;2023-11-19T11:03:35;13.43;;;3.88;;
64868;SDS011;51349;52.424;10.840;2023-11-19T11:08:41;17.83;;;3.85;;
64868;SDS011;51349;52.424;10.840;2023-11-19T11:13:43;15.55;;;3.55;;
64868;SDS011;51349;52.424;10.840;2023-11-19T11:18:47;12.90;;;3.83;;
64868;SDS011;51349;52.424;10.840;2023-11-19T11:29:13;16.75;;;3.63;;
64868;SDS011;51349;52.424;10.840;2023-11-19T11:39:42;12.98;;;3.38;;
64868;SDS011;51349;52.424;10.840;2023-11-19T11:50:08;14.00;;;3.20;;
64868;SDS011;51349;52.424;10.840;2023-11-19T11:55:09;15.63;;;3.33;;
64868;SDS011;51349;52.424;10.840;2023-11-19T12:00:11;15.85;;;3.15;;
64868;SDS011;51349;52.424;10.840;2023-11-19T12:05:31;15.63;;;3.67;;
64868;SDS011;51349;52.424;10.840;2023-11-19T12:10:45;16.23;;;3.05;;
64868;SDS011;51349;52.424;10.840;2023-11-19T12:20:56;10.98;;;3.72;;
64868;SDS011;51349;52.424;10.840;2023-11-19T12:26:00;12.77;;;3.05;;
64868;SDS011;51349;52.424;10.840;2023-11-19T12:31:07;15.13;;;3.90;;
64868;SDS011;51349;52.424;10.840;2023-11-19T12:36:11;12.55;;;3.47;;
64868;SDS011;51349;52.424;10.840;2023-11-19T12:41:12;13.80;;;3.35;;
64868;SDS011;51349;52.424;10.840;2023-11-19T12:46:21;12.70;;;4.00;;
64868;SDS011;51349;52.424;10.840;2023-11-19T12:51:22;13.55;;;3.80;;
64868;SDS011;51349;52.424;10.840;2023-11-19T12:56:32;17.25;;;3.85;;
64868;SDS011;51349;52.424;10.840;2023-11-19T13:01:33;22.67;;;4.00;;
64868;SDS011;51349;52.424;10.840;2023-11-19T13:06:35;8.25;;;3.13;;
64868;SDS011;51349;52.424;10.840;2023-11-19T13:11:44;17.20;;;4.28;;
64868;SDS011;51349;52.424;10.840;2023-11-19T13:16:46;10.63;;;3.95;;
64868;SDS011;51349;52.424;10.840;2023-11-19T13:21:47;13.77;;;3.85;;
64868;SDS011;51349;52.424;10.840;2023-11-19T13:26:48;17.45;;;4.18;;
64868;SDS011;51349;52.424;10.840;2023-11-19T13:31:49;16.52;;;4.20;;
64868;SDS011;51349;52.424;10.840;2023-11-19T13:36:50;12.18;;;3.53;;
64868;SDS011;51349;52.424;10.840;2023-11-19T13:41:51;13.73;;;3.85;;
64868;SDS011;51349;52.424;10.840;2023-11-19T13:46:51;14.50;;;3.55;;
64868;SDS011;51349;52.424;10.840;2023-11-19T13:51:52;13.25;;;3.45;;
64868;SDS011;51349;52.424;10.840;2023-11-19T13:56:57;19.00;;;4.88;;
64868;SDS011;51349;52.424;10.840;2023-11-19T14:02:01;13.38;;;3.80;;
64868;SDS011;51349;52.424;10.840;2023-11-19T14:07:02;15.90;;;3.78;;
64868;SDS011;51349;52.424;10.840;2023-11-19T14:12:03;14.70;;;3.60;;
64868;SDS011;51349;52.424;10.840;2023-11-19T14:17:04;17.58;;;4.10;;
64868;SDS011;51349;52.424;10.840;2023-11-19T14:22:05;15.32;;;3.60;;
64868;SDS011;51349;52.424;10.840;2023-11-19T14:27:06;14.38;;;3.67;;
64868;SDS011;51349;52.424;10.840;2023-11-19T14:32:07;15.43;;;3.83;;
64868;SDS011;51349;52.424;10.840;2023-11-19T14:37:07;14.07;;;3.13;;
64868;SDS011;51349;52.424;10.840;2023-11-19T14:42:08;8.98;;;2.97;;
64868;SDS011;51349;52.424;10.840;2023-11-19T14:47:09;14.77;;;3.10;;
64868;SDS011;51349;52.424;10.840;2023-11-19T14:52:10;14.38;;;3.63;;
64868;SDS011;51349;52.424;10.840;2023-11-19T14:57:11;15.98;;;3.85;;
64868;SDS011;51349;52.424;10.840;2023-11-19T15:02:12;10.75;;;3.30;;
64868;SDS011;51349;52.424;10.840;2023-11-19T15:07:12;14.05;;;3.90;;
64868;SDS011;51349;52.424;10.840;2023-11-19T15:12:13;18.25;;;4.68;;
64868;SDS011;51349;52.424;10.840;2023-11-19T15:17:15;19.90;;;4.30;;
64868;SDS011;51349;52.424;10.840;2023-11-19T15:22:16;10.93;;;3.72;;
64868;SDS011;51349;52.424;10.840;2023-11-19T15:27:17;13.68;;;3.92;;
64868;SDS011;51349;52.424;10.840;2023-11-19T15:32:18;11.70;;;4.55;;
64868;SDS011;51349;52.424;10.840;2023-11-19T15:37:18;14.95;;;4.43;;
64868;SDS011;51349;52.424;10.840;2023-11-19T15:42:20;15.80;;;4.10;;
64868;SDS011;51349;52.424;10.840;2023-11-19T15:47:20;14.70;;;5.50;;
64868;SDS011;51349;52.424;10.840;2023-11-19T15:52:21;10.40;;;4.35;;
64868;SDS011;51349;52.424;10.840;2023-11-19T15:57:22;14.98;;;4.90;;
64868;SDS011;51349;52.424;10.840;2023-11-19T16:02:23;15.75;;;4.47;;
64868;SDS011;51349;52.424;10.840;2023-11-19T16:07:24;10.77;;;4.43;;
64868;SDS011;51349;52.424;10.840;2023-11-19T16:12:25;10.82;;;3.50;;
64868;SDS011;51349;52.424;10.840;2023-11-19T16:17:26;9.07;;;3.40;;
64868;SDS011;51349;52.424;10.840;2023-11-19T16:22:29;10.77;;;3.78;;
64868;SDS011;51349;52.424;10.840;2023-11-19T16:27:30;9.77;;;3.60;;
64868;SDS011;51349;52.424;10.840;2023-11-19T16:32:30;13.30;;;3.92;;
64868;SDS011;51349;52.424;10.840;2023-11-19T16:37:31;11.73;;;3.78;;
64868;SDS011;51349;52.424;10.840;2023-11-19T16:42:32;11.13;;;3.88;;
64868;SDS011;51349;52.424;10.840;2023-11-19T16:47:42;8.75;;;4.00;;
64868;SDS011;51349;52.424;10.840;2023-11-19T16:52:45;13.15;;;4.00;;
64868;SDS011;51349;52.424;10.840;2023-11-19T16:57:45;9.93;;;3.92;;
64868;SDS011;51349;52.424;10.840;2023-11-19T17:02:46;12.07;;;4.50;;
64868;SDS011;51349;52.424;10.840;2023-11-19T17:07:47;17.00;;;4.18;;
64868;SDS011;51349;52.424;10.840;2023-11-19T17:12:48;11.65;;;4.15;;
64868;SDS011;51349;52.424;10.840;2023-11-19T17:17:48;9.65;;;4.13;;
64868;SDS011;51349;52.424;10.840;2023-11-19T17:22:49;13.13;;;4.10;;
64868;SDS011;51349;52.424;10.840;2023-11-19T17:27:50;10.90;;;4.10;;
64868;SDS011;51349;52.424;10.840;2023-11-19T17:32:51;14.93;;;6.40;;
64868;SDS011;51349;52.424;10.840;2023-11-19T17:37:52;8.52;;;4.47;;
64868;SDS011;51349;52.424;10.840;2023-11-19T17:42:53;8.15;;;3.60;;
64868;SDS011;51349;52.424;10.840;2023-11-19T17:47:53;6.95;;;4.00;;
64868;SDS011;51349;52.424;10.840;2023-11-19T17:52:54;11.10;;;3.60;;
64868;SDS011;51349;52.424;10.840;2023-11-19T17:57:55;10.77;;;3.80;;
64868;SDS011;51349;52.424;10.840;2023-11-19T18:02:56;12.20;;;4.15;;
64868;SDS011;51349;52.424;10.840;2023-11-19T18:07:57;10.40;;;3.95;;
64868;SDS011;51349;52.424;10.840;2023-11-19T18:12:57;11.60;;;4.57;;
64868;SDS011;51349;52.424;10.840;2023-11-19T18:17:58;11.45;;;4.20;;
64868;SDS011;51349;52.424;10.840;2023-11-19T18:22:59;12.82;;;4.38;;
64868;SDS011;51349;52.424;10.840;2023-11-19T18:28:00;8.63;;;3.77;;
64868;SDS011;51349;52.424;10.840;2023-11-19T18:33:01;10.68;;;4.15;;
64868;SDS011;51349;52.424;10.840;2023-11-19T18:38:03;9.15;;;3.83;;
64868;SDS011;51349;52.424;10.840;2023-11-19T18:43:10;10.98;;;4.78;;
64868;SDS011;51349;52.424;10.840;2023-11-19T18:48:11;16.45;;;4.53;;
64868;SDS011;51349;52.424;10.840;2023-11-19T18:53:12;12.05;;;4.22;;
64868;SDS011;51349;52.424;10.840;2023-11-19T18:58:13;9.65;;;4.88;;
64868;SDS011;51349;52.424;10.840;2023-11-19T19:03:15;11.57;;;4.30;;
64868;SDS011;51349;52.424;10.840;2023-11-19T19:08:24;12.73;;;4.40;;
64868;SDS011;51349;52.424;10.840;2023-11-19T19:13:25;10.05;;;4.22;;
64868;SDS011;51349;52.424;10.840;2023-11-19T19:18:26;9.07;;;4.60;;
64868;SDS011;51349;52.424;10.840;2023-11-19T19:23:27;11.73;;;4.03;;
64868;SDS011;51349;52.424;10.840;2023-11-19T19:28:28;14.82;;;4.43;;
64868;SDS011;51349;52.424;10.840;2023-11-19T19:33:31;11.17;;;4.20;;
64868;SDS011;51349;52.424;10.840;2023-11-19T19:38:31;7.73;;;3.80;;
64868;SDS011;51349;52.424;10.840;2023-11-19T19:43:32;10.35;;;4.05;;
64868;SDS011;51349;52.424;10.840;2023-11-19T19:48:33;12.18;;;4.40;;
64868;SDS011;51349;52.424;10.840;2023-11-19T19:53:34;10.13;;;3.73;;
64868;SDS011;51349;52.424;10.840;2023-11-19T19:58:35;12.00;;;4.60;;
64868;SDS011;51349;52.424;10.840;2023-11-19T20:03:36;13.20;;;4.47;;
64868;SDS011;51349;52.424;10.840;2023-11-19T20:08:37;14.48;;;4.63;;
64868;SDS011;51349;52.424;10.840;2023-11-19T20:13:38;11.30;;;3.73;;
64868;SDS011;51349;52.424;10.840;2023-11-19T20:18:39;15.00;;;4.50;;
64868;SDS011;51349;52.424;10.840;2023-11-19T20:23:40;13.07;;;4.10;;
64868;SDS011;51349;52.424;10.840;2023-11-19T20:28:41;10.18;;;4.53;;
64868;SDS011;51349;52.424;10.840;2023-11-19T20:33:44;15.20;;;4.40;;
64868;SDS011;51349;52.424;10.840;2023-11-19T20:38:45;10.20;;;4.55;;
64868;SDS011;51349;52.424;10.840;2023-11-19T20:43:45;9.60;;;4.50;;
64868;SDS011;51349;52.424;10.840;2023-11-19T20:48:46;15.10;;;5.38;;
64868;SDS011;51349;52.424;10.840;2023-11-19T20:53:47;11.50;;;4.70;;
64868;SDS011;51349;52.424;10.840;2023-11-19T20:58:47;12.80;;;4.78;;
64868;SDS011;51349;52.424;10.840;2023-11-19T21:03:48;12.23;;;4.65;;
64868;SDS011;51349;52.424;10.840;2023-11-19T21:08:49;9.30;;;4.55;;
64868;SDS011;51349;52.424;10.840;2023-11-19T21:13:51;8.93;;;4.60;;
64868;SDS011;51349;52.424;10.840;2023-11-19T21:18:51;13.43;;;4.47;;
64868;SDS011;51349;52.424;10.840;2023-11-19T21:23:52;9.07;;;4.50;;
64868;SDS011;51349;52.424;10.840;2023-11-19T21:28:53;11.05;;;4.30;;
64868;SDS011;51349;52.424;10.840;2023-11-19T21:33:54;10.25;;;4.05;;
64868;SDS011;51349;52.424;10.840;2023-11-19T21:38:55;11.88;;;4.40;;
64868;SDS011;51349;52.424;10.840;2023-11-19T21:43:56;10.52;;;4.07;;
64868;SDS011;51349;52.424;10.840;2023-11-19T21:48:57;9.13;;;4.10;;
64868;SDS011;51349;52.424;10.840;2023-11-19T21:53:58;12.77;;;4.32;;
64868;SDS011;51349;52.424;10.840;2023-11-19T21:58:59;8.90;;;4.32;;
64868;SDS011;51349;52.424;10.840;2023-11-19T22:04:00;6.38;;;3.80;;
64868;SDS011;51349;52.424;10.840;2023-11-19T22:09:01;7.40;;;4.00;;
64868;SDS011;51349;52.424;10.840;2023-11-19T22:14:02;7.07;;;3.37;;
64868;SDS011;51349;52.424;10.840;2023-11-19T22:19:03;5.70;;;3.50;;
64868;SDS011;51349;52.424;10.840;2023-11-19T22:24:04;7.30;;;3.10;;
64868;SDS011;51349;52.424;10.840;2023-11-19T22:29:05;7.78;;;3.60;;
64868;SDS011;51349;52.424;10.840;2023-11-19T22:34:05;8.52;;;3.70;;
64868;SDS011;51349;52.424;10.840;2023-11-19T22:39:06;4.00;;;3.17;;
64868;SDS011;51349;52.424;10.840;2023-11-19T22:44:07;5.93;;;3.20;;
64868;SDS011;51349;52.424;10.840;2023-11-19T22:49:09;6.43;;;3.03;;
64868;SDS011;51349;52.424;10.840;2023-11-19T22:54:09;5.82;;;2.80;;
64868;SDS011;51349;52.424;10.840;2023-11-19T22:59:10;4.70;;;2.60;;
64868;SDS011;51349;52.424;10.840;2023-11-19T23:04:11;2.90;;;2.30;;
64868;SDS011;51349;52.424;10.840;2023-11-19T23:09:12;4.93;;;2.50;;
64868;SDS011;51349;52.424;10.840;2023-11-19T23:14:14;3.20;;;2.33;;
64868;SDS011;51349;52.424;10.840;2023-11-19T23:19:14;7.40;;;2.70;;
64868;SDS011;51349;52.424;10.840;2023-11-19T23:24:15;3.90;;;2.53;;
64868;SDS011;51349;52.424;10.840;2023-11-19T23:29:16;6.53;;;2.90;;
64868;SDS011;51349;52.424;10.840;2023-11-19T23:34:16;3.33;;;2.45;;
64868;SDS011;51349;52.424;10.840;2023-11-19T23:39:17;5.65;;;2.13;;
64868;SDS011;51349;52.424;10.840;2023-11-19T23:44:18;3.60;;;1.92;;
64868;SDS011;51349;52.424;10.840;2023-11-19T23:49:19;2.80;;;1.77;;
64868;SDS011;51349;52.424;10.840;2023-11-19T23:54:20;2.70;;;1.70;;
64868;SDS011;51349;52.424;10.840;2023-11-19T23:59:21;1.92;;;1.60;;
